| time (UTC) | temp C | wind direction | speed KPH | gust KPH | rain 1hr cm | rain 24hr cm | rain mn cm | humidity % | barometer mb |
| 20260507230005 | 12 | 7 | 0.0 | 1.6 | 0.00 | 0.33 | 0.00 | 90 | 1009.8 |
| 20260507225426 | 12 | 0 | 0.0 | 0.0 | 0.00 | 0.33 | 0.00 | 89 | 1010.0 |
| 20260507224526 | 12 | 7 | 0.0 | 1.6 | 0.00 | 0.36 | 0.00 | 88 | 1010.0 |
| 20260507223626 | 12 | 0 | 0.0 | 0.0 | 0.00 | 0.36 | 0.00 | 88 | 1010.1 |
| 20260507222705 | 12 | 7 | 0.0 | 1.6 | 0.00 | 0.38 | 0.00 | 87 | 1010.2 |
| 20260507221805 | 12 | 7 | 0.0 | 1.6 | 0.00 | 0.43 | 0.00 | 88 | 1010.4 |
| 20260507220905 | 12 | 7 | 0.0 | 3.2 | 0.00 | 0.48 | 0.00 | 89 | 1010.2 |
| 20260507220005 | 12 | 7 | 0.0 | 3.2 | 0.00 | 0.51 | 0.00 | 89 | 1010.2 |
| 20260507215405 | 12 | 0 | 0.0 | 0.0 | 0.00 | 0.53 | 0.51 | 90 | 1010.2 |
| 20260507214505 | 12 | 0 | 0.0 | 0.0 | 0.00 | 0.56 | 0.51 | 89 | 1010.4 |
| 20260507213605 | 12 | 0 | 0.0 | 0.0 | 0.00 | 0.56 | 0.51 | 89 | 1010.4 |
| 20260507212705 | 12 | 7 | 0.0 | 1.6 | 0.00 | 0.56 | 0.51 | 88 | 1010.3 |
| 20260507211806 | 12 | 7 | 0.0 | 1.6 | 0.00 | 0.56 | 0.51 | 87 | 1010.3 |
| 20260507210912 | 12 | 0 | 0.0 | 0.0 | 0.00 | 0.56 | 0.51 | 86 | 1010.2 |
| 20260507210005 | 13 | 0 | 0.0 | 0.0 | 0.00 | 0.56 | 0.51 | 84 | 1010.2 |
| 20260507205405 | 13 | 0 | 0.0 | 0.0 | 0.00 | 0.56 | 0.51 | 84 | 1010.3 |
| 20260507204520 | 12 | 0 | 0.0 | 0.0 | 0.00 | 0.56 | 0.51 | 85 | 1010.5 |
| 20260507203605 | 13 | 6 | 0.0 | 1.6 | 0.00 | 0.56 | 0.51 | 82 | 1010.3 |
| 20260507202705 | 13 | 7 | 0.0 | 1.6 | 0.00 | 0.56 | 0.51 | 80 | 1010.4 |
| 20260507201805 | 13 | 0 | 0.0 | 0.0 | 0.00 | 0.56 | 0.51 | 80 | 1010.4 |
| 20260507200905 | 13 | 0 | 0.0 | 0.0 | 0.00 | 0.56 | 0.51 | 79 | 1010.4 |
| 20260507200005 | 14 | 7 | 0.0 | 3.2 | 0.00 | 0.56 | 0.51 | 75 | 1010.4 |
| 20260507195405 | 14 | 7 | 0.0 | 3.2 | 0.00 | 0.56 | 0.51 | 75 | 1010.2 |
| 20260507194505 | 15 | 7 | 0.0 | 1.6 | 0.00 | 0.56 | 0.51 | 72 | 1010.3 |
| 20260507193627 | 15 | 7 | 0.0 | 3.2 | 0.00 | 0.56 | 0.51 | 70 | 1010.1 |
| 20260507192728 | 15 | 7 | 0.0 | 3.2 | 0.00 | 0.56 | 0.51 | 68 | 1010.0 |
| 20260507191805 | 16 | 7 | 0.0 | 1.6 | 0.00 | 0.58 | 0.51 | 66 | 1010.2 |
| 20260507190905 | 16 | 7 | 0.0 | 1.6 | 0.00 | 0.58 | 0.51 | 63 | 1010.2 |
| 20260507190006 | 16 | 7 | 0.0 | 3.2 | 0.00 | 0.58 | 0.51 | 65 | 1010.0 |
| 20260507185405 | 16 | 7 | 0.0 | 3.2 | 0.00 | 0.58 | 0.51 | 66 | 1009.9 |
| 20260507184505 | 16 | 7 | 0.0 | 3.2 | 0.00 | 0.58 | 0.51 | 67 | 1009.7 |
| 20260507183605 | 17 | 7 | 0.0 | 4.8 | 0.00 | 0.58 | 0.51 | 68 | 1009.8 |
| 20260507182705 | 17 | 352 | 1.6 | 4.8 | 0.00 | 0.58 | 0.51 | 69 | 1009.9 |
| 20260507181805 | 17 | 317 | 0.0 | 3.2 | 0.00 | 0.58 | 0.51 | 69 | 1009.9 |
| 20260507180905 | 17 | 289 | 0.0 | 3.2 | 0.00 | 0.58 | 0.51 | 68 | 1009.9 |
| 20260507180005 | 18 | 288 | 0.0 | 1.6 | 0.00 | 0.58 | 0.51 | 65 | 1009.8 |
| 20260507175405 | 18 | 288 | 0.0 | 1.6 | 0.00 | 0.58 | 0.51 | 65 | 1009.6 |
| 20260507174512 | 19 | 287 | 0.0 | 3.2 | 0.00 | 0.58 | 0.51 | 62 | 1009.7 |
| 20260507173605 | 20 | 287 | 0.0 | 1.6 | 0.00 | 0.58 | 0.51 | 57 | 1010.0 |
| 20260507172705 | 21 | 287 | 0.0 | 1.6 | 0.00 | 0.58 | 0.51 | 49 | 1009.7 |
| 20260507171805 | 21 | 287 | 0.0 | 3.2 | 0.00 | 0.58 | 0.51 | 46 | 1009.7 |
| 20260507170905 | 22 | 287 | 0.0 | 3.2 | 0.00 | 0.58 | 0.51 | 41 | 1009.3 |
| 20260507170005 | 22 | 287 | 0.0 | 3.2 | 0.00 | 0.58 | 0.51 | 40 | 1009.3 |
| 20260507165405 | 23 | 287 | 1.6 | 6.4 | 0.00 | 0.58 | 0.51 | 40 | 1009.6 |
| 20260507164505 | 23 | 287 | 0.0 | 4.8 | 0.00 | 0.58 | 0.51 | 40 | 1009.3 |
| 20260507163605 | 23 | 287 | 0.0 | 3.2 | 0.00 | 0.58 | 0.51 | 42 | 1009.6 |
| 20260507162708 | 24 | 287 | 0.0 | 6.4 | 0.00 | 0.58 | 0.51 | 40 | 1009.5 |
| 20260507161826 | 24 | 287 | 0.0 | 4.8 | 0.00 | 0.58 | 0.51 | 42 | 1009.5 |
| 20260507160905 | 23 | 310 | 1.6 | 6.4 | 0.00 | 0.58 | 0.51 | 42 | 1009.4 |
| 20260507160005 | 24 | 336 | 0.0 | 4.8 | 0.00 | 0.58 | 0.51 | 42 | 1009.7 |
| 20260507155405 | 24 | 339 | 0.0 | 3.2 | 0.00 | 0.58 | 0.51 | 44 | 1009.7 |
| 20260507154506 | 25 | 339 | 0.0 | 1.6 | 0.00 | 0.58 | 0.51 | 43 | 1009.5 |
| 20260507153605 | 25 | 0 | 0.0 | 0.0 | 0.00 | 0.58 | 0.51 | 41 | 1009.8 |
| 20260507152705 | 23 | 321 | 1.6 | 9.7 | 0.00 | 0.58 | 0.51 | 45 | 1009.6 |
| 20260507151804 | 25 | 287 | 0.0 | 6.4 | 0.00 | 0.58 | 0.51 | 42 | 1009.7 |
| 20260507150904 | 26 | 287 | 0.0 | 3.2 | 0.00 | 0.58 | 0.51 | 43 | 1009.8 |
| 20260507150006 | 25 | 287 | 0.0 | 3.2 | 0.00 | 0.58 | 0.51 | 43 | 1009.9 |
| 20260507145404 | 25 | 286 | 0.0 | 3.2 | 0.00 | 0.58 | 0.51 | 51 | 1009.7 |
| 20260507144504 | 24 | 278 | 0.0 | 4.8 | 0.00 | 0.58 | 0.51 | 45 | 1009.9 |
| 20260507143604 | 25 | 271 | 0.0 | 6.4 | 0.00 | 0.58 | 0.51 | 46 | 1010.1 |
| 20260507142704 | 25 | 250 | 1.6 | 11.3 | 0.00 | 0.58 | 0.51 | 45 | 1010.2 |
| 20260507141805 | 25 | 246 | 0.0 | 11.3 | 0.00 | 0.58 | 0.51 | 44 | 1010.2 |
| 20260507140904 | 26 | 156 | 0.0 | 3.2 | 0.00 | 0.58 | 0.51 | 44 | 1010.6 |
| 20260507140006 | 26 | 156 | 0.0 | 1.6 | 0.00 | 0.58 | 0.51 | 42 | 1010.6 |
| 20260507135405 | 25 | 156 | 0.0 | 3.2 | 0.00 | 0.58 | 0.51 | 44 | 1010.6 |
| 20260507134525 | 26 | 156 | 0.0 | 4.8 | 0.00 | 0.58 | 0.51 | 43 | 1011.1 |
| 20260507133604 | 25 | 189 | 0.0 | 4.8 | 0.00 | 0.58 | 0.51 | 45 | 1011.0 |
| 20260507132708 | 25 | 236 | 0.0 | 3.2 | 0.00 | 0.58 | 0.51 | 47 | 1011.0 |
| 20260507131825 | 25 | 236 | 0.0 | 4.8 | 0.00 | 0.58 | 0.51 | 42 | 1011.2 |
| 20260507130904 | 25 | 0 | 0.0 | 0.0 | 0.00 | 0.58 | 0.51 | 41 | 1011.2 |
| 20260507130005 | 24 | 237 | 0.0 | 1.6 | 0.00 | 0.58 | 0.51 | 42 | 1011.5 |
| 20260507125425 | 24 | 237 | 0.0 | 3.2 | 0.00 | 0.58 | 0.51 | 45 | 1011.3 |
| 20260507124504 | 23 | 237 | 1.6 | 6.4 | 0.00 | 0.58 | 0.51 | 52 | 1011.4 |
| 20260507123625 | 23 | 247 | 0.0 | 3.2 | 0.00 | 0.58 | 0.51 | 49 | 1011.6 |
| 20260507122705 | 23 | 247 | 0.0 | 3.2 | 0.00 | 0.58 | 0.51 | 51 | 1011.6 |
| 20260507121827 | 22 | 247 | 0.0 | 4.8 | 0.00 | 0.58 | 0.51 | 54 | 1011.6 |
| 20260507120904 | 22 | 248 | 0.0 | 3.2 | 0.00 | 0.58 | 0.51 | 54 | 1011.7 |
| 20260507120005 | 22 | 0 | 0.0 | 0.0 | 0.00 | 0.58 | 0.51 | 54 | 1011.3 |
| 20260507115404 | 23 | 239 | 0.0 | 4.8 | 0.00 | 0.58 | 0.51 | 53 | 1011.5 |
| 20260507114504 | 22 | 205 | 0.0 | 3.2 | 0.00 | 0.58 | 0.51 | 53 | 1011.5 |
| 20260507113604 | 22 | 185 | 0.0 | 1.6 | 0.00 | 0.58 | 0.51 | 55 | 1011.5 |
| 20260507112707 | 22 | 219 | 0.0 | 1.6 | 0.00 | 0.58 | 0.51 | 55 | 1011.7 |
| 20260507111804 | 22 | 219 | 0.0 | 1.6 | 0.00 | 0.58 | 0.51 | 57 | 1011.6 |
| 20260507110904 | 22 | 219 | 0.0 | 4.8 | 0.00 | 0.58 | 0.51 | 56 | 1011.4 |
| 20260507110005 | 22 | 197 | 0.0 | 4.8 | 0.00 | 0.58 | 0.51 | 60 | 1011.9 |
| 20260507105412 | 22 | 172 | 0.0 | 3.2 | 0.00 | 0.58 | 0.51 | 62 | 1012.0 |
| 20260507104505 | 22 | 180 | 0.0 | 4.8 | 0.00 | 0.58 | 0.51 | 59 | 1012.0 |
| 20260507103604 | 21 | 0 | 0.0 | 0.0 | 0.00 | 0.58 | 0.51 | 65 | 1012.1 |
| 20260507102704 | 21 | 253 | 0.0 | 1.6 | 0.00 | 0.58 | 0.51 | 63 | 1012.0 |
| 20260507101804 | 21 | 214 | 0.0 | 4.8 | 0.00 | 0.58 | 0.51 | 61 | 1012.2 |
| 20260507100904 | 21 | 241 | 0.0 | 4.8 | 0.00 | 0.58 | 0.51 | 62 | 1012.2 |
| 20260507100025 | 21 | 247 | 0.0 | 3.2 | 0.00 | 0.58 | 0.51 | 64 | 1012.2 |
| 20260507095404 | 21 | 247 | 0.0 | 3.2 | 0.00 | 0.58 | 0.51 | 62 | 1012.0 |
| 20260507094504 | 21 | 248 | 0.0 | 3.2 | 0.00 | 0.58 | 0.51 | 66 | 1012.3 |
| 20260507093607 | 20 | 249 | 0.0 | 1.6 | 0.00 | 0.58 | 0.51 | 66 | 1012.2 |
| 20260507092704 | 20 | 249 | 0.0 | 1.6 | 0.00 | 0.58 | 0.51 | 70 | 1012.2 |
| 20260507091804 | 20 | 250 | 0.0 | 3.2 | 0.00 | 0.58 | 0.51 | 71 | 1012.3 |
| 20260507090904 | 20 | 131 | 0.0 | 3.2 | 0.00 | 0.58 | 0.51 | 72 | 1012.3 |
| 20260507090006 | 20 | 108 | 0.0 | 1.6 | 0.00 | 0.58 | 0.51 | 71 | 1012.5 |
| 20260507085406 | 20 | 108 | 0.0 | 1.6 | 0.00 | 0.58 | 0.51 | 71 | 1012.9 |
| 20260507084509 | 20 | 108 | 0.0 | 3.2 | 0.00 | 0.58 | 0.51 | 73 | 1012.8 |
| 20260507083604 | 20 | 108 | 0.0 | 1.6 | 0.00 | 0.58 | 0.51 | 71 | 1012.8 |
| 20260507082704 | 20 | 108 | 0.0 | 3.2 | 0.00 | 0.58 | 0.51 | 72 | 1012.8 |
| 20260507081806 | 19 | 108 | 0.0 | 1.6 | 0.00 | 0.58 | 0.51 | 74 | 1012.7 |
| 20260507080904 | 19 | 107 | 0.0 | 1.6 | 0.00 | 0.58 | 0.51 | 74 | 1013.0 |
| 20260507080026 | 19 | 0 | 0.0 | 0.0 | 0.00 | 0.58 | 0.51 | 74 | 1012.6 |
| 20260507075404 | 19 | 108 | 0.0 | 1.6 | 0.00 | 0.58 | 0.51 | 77 | 1012.6 |
| 20260507074505 | 19 | 108 | 0.0 | 1.6 | 0.00 | 0.58 | 0.51 | 76 | 1012.7 |
| 20260507073604 | 18 | 107 | 0.0 | 1.6 | 0.00 | 0.58 | 0.51 | 78 | 1012.7 |
| 20260507072704 | 18 | 107 | 0.0 | 1.6 | 0.00 | 0.58 | 0.51 | 76 | 1012.9 |
| 20260507071805 | 18 | 107 | 0.0 | 1.6 | 0.00 | 0.58 | 0.51 | 80 | 1012.6 |
| 20260507070904 | 18 | 0 | 0.0 | 0.0 | 0.00 | 0.58 | 0.51 | 81 | 1013.0 |
| 20260507070009 | 17 | 0 | 0.0 | 0.0 | 0.00 | 0.58 | 0.51 | 84 | 1012.7 |
| 20260507065406 | 16 | 0 | 0.0 | 0.0 | 0.00 | 0.58 | 0.51 | 90 | 1012.8 |
| 20260507064504 | 15 | 0 | 0.0 | 0.0 | 0.00 | 0.58 | 0.51 | 94 | 1012.7 |
| 20260507063604 | 15 | 153 | 0.0 | 3.2 | 0.00 | 0.58 | 0.51 | 96 | 1012.9 |
| 20260507062704 | 15 | 0 | 0.0 | 0.0 | 0.00 | 0.58 | 0.51 | 98 | 1012.7 |
| 20260507061804 | 14 | 0 | 0.0 | 0.0 | 0.00 | 0.58 | 0.51 | 99 | 1012.5 |
| 20260507060906 | 14 | 0 | 0.0 | 0.0 | 0.00 | 0.58 | 0.51 | 99 | 1012.6 |
| 20260507060004 | 14 | 0 | 0.0 | 0.0 | 0.00 | 0.58 | 0.51 | 99 | 1012.5 |
| 20260507055404 | 14 | 0 | 0.0 | 0.0 | 0.00 | 0.58 | 0.51 | 99 | 1012.6 |
| 20260507054504 | 13 | 0 | 0.0 | 0.0 | 0.00 | 0.58 | 0.51 | 99 | 1012.4 |
| 20260507053625 | 13 | 0 | 0.0 | 0.0 | 0.00 | 0.58 | 0.51 | 99 | 1012.3 |
| 20260507052704 | 13 | 0 | 0.0 | 0.0 | 0.00 | 0.58 | 0.51 | 99 | 1012.3 |
| 20260507051804 | 12 | 0 | 0.0 | 0.0 | 0.00 | 0.58 | 0.51 | 99 | 1012.4 |
| 20260507050904 | 12 | 0 | 0.0 | 0.0 | 0.00 | 0.58 | 0.51 | 99 | 1012.4 |
| 20260507050005 | 12 | 0 | 0.0 | 0.0 | 0.00 | 0.58 | 0.51 | 99 | 1012.3 |
| 20260507045404 | 12 | 0 | 0.0 | 0.0 | 0.00 | 0.58 | 0.51 | 99 | 1012.3 |
| 20260507044504 | 12 | 0 | 0.0 | 0.0 | 0.00 | 0.58 | 0.51 | 99 | 1012.4 |
| 20260507043604 | 12 | 0 | 0.0 | 0.0 | 0.00 | 0.58 | 0.51 | 99 | 1012.3 |
| 20260507042707 | 12 | 0 | 0.0 | 0.0 | 0.00 | 0.58 | 0.51 | 99 | 1012.2 |
| 20260507041804 | 12 | 0 | 0.0 | 0.0 | 0.00 | 0.58 | 0.51 | 99 | 1012.1 |
| 20260507040904 | 12 | 0 | 0.0 | 0.0 | 0.00 | 0.58 | 0.51 | 99 | 1011.9 |
| 20260507040005 | 12 | 0 | 0.0 | 0.0 | 0.00 | 0.58 | 0.51 | 99 | 1011.6 |
| 20260507035425 | 12 | 0 | 0.0 | 0.0 | 0.00 | 0.58 | 0.51 | 99 | 1011.6 |
| 20260507034504 | 13 | 0 | 0.0 | 0.0 | 0.00 | 0.58 | 0.51 | 99 | 1012.0 |
| 20260507033625 | 13 | 0 | 0.0 | 0.0 | 0.03 | 0.61 | 0.51 | 99 | 1011.9 |
| 20260507032704 | 13 | 0 | 0.0 | 0.0 | 0.05 | 0.61 | 0.51 | 99 | 1011.7 |
| 20260507031804 | 13 | 0 | 0.0 | 0.0 | 0.08 | 0.61 | 0.51 | 99 | 1011.9 |
| 20260507030904 | 13 | 0 | 0.0 | 0.0 | 0.08 | 0.61 | 0.51 | 99 | 1011.9 |
| 20260507030004 | 13 | 0 | 0.0 | 0.0 | 0.10 | 0.61 | 0.51 | 99 | 1011.9 |
| 20260507025404 | 13 | 0 | 0.0 | 0.0 | 0.10 | 0.61 | 0.51 | 99 | 1012.0 |
| 20260507024504 | 13 | 0 | 0.0 | 0.0 | 0.10 | 0.61 | 0.51 | 99 | 1012.1 |
| 20260507023605 | 13 | 0 | 0.0 | 0.0 | 0.08 | 0.58 | 0.48 | 99 | 1011.5 |
| 20260507022707 | 13 | 0 | 0.0 | 0.0 | 0.05 | 0.56 | 0.46 | 99 | 1011.6 |
| 20260507021806 | 13 | 0 | 0.0 | 0.0 | 0.03 | 0.53 | 0.43 | 99 | 1011.9 |
| 20260507020905 | 13 | 0 | 0.0 | 0.0 | 0.03 | 0.53 | 0.43 | 99 | 1012.1 |
| 20260507020005 | 13 | 0 | 0.0 | 0.0 | 0.00 | 0.51 | 0.41 | 99 | 1012.1 |
| 20260507015404 | 13 | 0 | 0.0 | 0.0 | 0.00 | 0.51 | 0.41 | 99 | 1012.0 |
| 20260507014505 | 13 | 0 | 0.0 | 0.0 | 0.03 | 0.51 | 0.41 | 99 | 1012.0 |
| 20260507013604 | 13 | 0 | 0.0 | 0.0 | 0.05 | 0.51 | 0.41 | 99 | 1012.0 |
| 20260507012704 | 13 | 0 | 0.0 | 0.0 | 0.05 | 0.51 | 0.41 | 99 | 1012.0 |
| 20260507011804 | 13 | 0 | 0.0 | 0.0 | 0.08 | 0.51 | 0.41 | 99 | 1011.9 |
| 20260507010904 | 13 | 0 | 0.0 | 0.0 | 0.08 | 0.51 | 0.41 | 99 | 1011.6 |
| 20260507010004 | 13 | 0 | 0.0 | 0.0 | 0.08 | 0.51 | 0.41 | 99 | 1012.1 |
| 20260507005425 | 13 | 0 | 0.0 | 0.0 | 0.08 | 0.51 | 0.41 | 99 | 1011.9 |
| 20260507004504 | 13 | 0 | 0.0 | 0.0 | 0.05 | 0.48 | 0.38 | 99 | 1011.9 |
| 20260507003604 | 13 | 0 | 0.0 | 0.0 | 0.03 | 0.46 | 0.36 | 99 | 1011.9 |
| 20260507002705 | 13 | 0 | 0.0 | 0.0 | 0.05 | 0.46 | 0.36 | 99 | 1011.9 |
| 20260507001804 | 13 | 0 | 0.0 | 0.0 | 0.08 | 0.43 | 0.33 | 99 | 1011.9 |
| 20260507000925 | 14 | 0 | 0.0 | 0.0 | 0.10 | 0.43 | 0.33 | 99 | 1012.0 |
| 20260507000004 | 14 | 0 | 0.0 | 0.0 | 0.15 | 0.43 | 0.33 | 99 | 1012.0 |
| 20260506235405 | 14 | 0 | 0.0 | 0.0 | 0.15 | 0.43 | 0.33 | 99 | 1011.9 |
| 20260506234525 | 13 | 0 | 0.0 | 0.0 | 0.18 | 0.43 | 0.33 | 99 | 1011.9 |
| 20260506233626 | 13 | 0 | 0.0 | 0.0 | 0.18 | 0.43 | 0.33 | 98 | 1012.2 |
| 20260506232704 | 14 | 0 | 0.0 | 0.0 | 0.18 | 0.41 | 0.30 | 98 | 1012.0 |
| 20260506231825 | 14 | 0 | 0.0 | 0.0 | 0.18 | 0.36 | 0.25 | 98 | 1012.1 |
| 20260506230904 | 14 | 0 | 0.0 | 0.0 | 0.20 | 0.33 | 0.23 | 98 | 1012.2 |